createdAt,value
2016-10-13T07:20:24.338Z,0.08
2016-10-13T07:21:24.333Z,0.08
2016-10-13T07:22:24.307Z,0.12
2016-10-13T07:23:24.314Z,0.23
2016-10-13T07:24:24.286Z,0.16
2016-10-13T07:25:24.249Z,0.19
2016-10-13T07:26:24.270Z,0.26
2016-10-13T07:27:24.237Z,0.31
2016-10-13T07:28:24.209Z,0.35
2016-10-13T07:29:24.212Z,0.4
2016-10-13T07:30:24.185Z,0.43
2016-10-13T07:31:24.194Z,0.72
2016-10-13T07:32:24.179Z,0.9
2016-10-13T07:33:24.128Z,1.02
2016-10-13T07:34:24.128Z,1.1
2016-10-13T07:35:24.114Z,0.89
2016-10-13T07:36:24.105Z,0.67
2016-10-13T07:37:24.085Z,0.74
2016-10-13T07:38:24.068Z,0.82
2016-10-13T07:39:24.055Z,0.92
2016-10-13T07:40:24.031Z,1.07
2016-10-13T07:41:24.015Z,1.43
2016-10-13T07:42:24.016Z,1.63
2016-10-13T07:43:23.997Z,1.46
2016-10-13T07:44:23.967Z,1.36
2016-10-13T07:45:23.991Z,1.36
2016-10-13T07:46:23.963Z,1.42
2016-10-13T07:47:23.924Z,1.6
2016-10-13T07:48:23.930Z,1.63
2016-10-13T07:49:23.915Z,1.57
2016-10-13T07:50:23.889Z,1.52
2016-10-13T07:51:23.891Z,1.29
2016-10-13T07:52:23.866Z,1.28
2016-10-13T07:53:23.839Z,1.24
2016-10-13T07:54:23.853Z,1.44
2016-10-13T07:55:23.833Z,1.53
2016-10-13T07:56:24.145Z,1.63
2016-10-13T07:57:23.789Z,1.63
2016-10-13T07:58:23.804Z,1.7
2016-10-13T07:59:23.768Z,1.61
2016-10-13T08:00:23.760Z,1.61
2016-10-13T08:01:23.740Z,1.63
2016-10-13T08:02:23.723Z,1.57
2016-10-13T08:03:23.711Z,1.44
2016-10-13T08:04:23.706Z,1.49
2016-10-13T08:05:23.686Z,1.28
2016-10-13T08:06:23.691Z,1.25
2016-10-13T08:07:23.656Z,1.49
2016-10-13T08:08:23.641Z,1.36
2016-10-13T08:09:23.639Z,1.42
2016-10-13T08:10:23.613Z,1.42
2016-10-13T08:11:23.598Z,1.39
2016-10-13T08:12:23.581Z,1.43
2016-10-13T08:13:23.589Z,1.56
2016-10-13T08:14:23.552Z,1.32
2016-10-13T08:15:23.543Z,1.36
2016-10-13T08:16:23.524Z,1.57
2016-10-13T08:17:23.520Z,1.74
2016-10-13T08:18:23.488Z,1.85
2016-10-13T08:19:23.487Z,2.14
2016-10-13T08:20:23.479Z,2.33
2016-10-13T08:21:23.471Z,2.45
2016-10-13T08:22:23.454Z,2.51
2016-10-13T08:23:23.442Z,2.68
2016-10-13T08:24:23.406Z,2.8
2016-10-13T08:25:23.407Z,2.86
2016-10-13T08:26:23.386Z,2.98
2016-10-13T08:27:23.369Z,2.94
2016-10-13T08:28:23.358Z,2.86
2016-10-13T08:29:23.342Z,2.77
2016-10-13T08:30:23.337Z,2.89
2016-10-13T08:31:23.315Z,3.22
2016-10-13T08:32:23.389Z,3.39
2016-10-13T08:33:23.289Z,3.26
2016-10-13T08:34:23.591Z,3.19
2016-10-13T08:35:23.256Z,3.01
2016-10-13T08:36:23.247Z,3.3
2016-10-13T08:37:23.230Z,3.63
2016-10-13T08:38:23.225Z,3.89
2016-10-13T08:39:23.223Z,3.82
2016-10-13T08:40:23.187Z,3.67
2016-10-13T08:41:23.178Z,3.37
2016-10-13T08:42:23.167Z,3.05
2016-10-13T08:43:23.157Z,2.77
2016-10-13T08:44:23.161Z,2.62
2016-10-13T08:45:23.135Z,2.59
2016-10-13T08:46:23.105Z,2.8
2016-10-13T08:47:23.098Z,2.5
2016-10-13T08:48:23.088Z,2.3
2016-10-13T08:49:23.070Z,2.3
2016-10-13T08:50:23.061Z,2.56
2016-10-13T08:51:23.049Z,2.79
2016-10-13T08:52:23.046Z,2.62
2016-10-13T08:53:23.033Z,2.47
2016-10-13T08:54:23.008Z,2.36
2016-10-13T08:55:23.019Z,1.93
2016-10-13T08:56:22.984Z,2.14
2016-10-13T08:57:22.981Z,2.14
2016-10-13T08:58:22.971Z,2.14
2016-10-13T08:59:22.973Z,1.98
2016-10-13T09:00:22.960Z,1.93
2016-10-13T09:01:22.924Z,2.04
2016-10-13T09:02:22.927Z,2.3
2016-10-13T09:03:22.897Z,2.43
2016-10-13T09:04:22.901Z,2.77
2016-10-13T09:05:22.858Z,2.74
2016-10-13T09:06:22.870Z,2.87
2016-10-13T09:07:22.851Z,2.73
2016-10-13T09:08:22.834Z,2.47
2016-10-13T09:09:22.803Z,2.44
2016-10-13T09:10:22.789Z,2.32
2016-10-13T09:11:22.792Z,2.5
2016-10-13T09:12:22.771Z,2.23
2016-10-13T09:13:22.772Z,1.93
2016-10-13T09:14:22.752Z,2.58
2016-10-13T09:15:22.738Z,2.81
2016-10-13T09:16:22.730Z,2.74
2016-10-13T09:17:22.730Z,3.01
2016-10-13T09:18:22.715Z,3.33
2016-10-13T09:19:22.678Z,3.93
2016-10-13T09:20:22.661Z,4.24
2016-10-13T09:21:22.661Z,4.39
2016-10-13T09:22:22.655Z,4.43
2016-10-13T09:23:22.630Z,4.79
2016-10-13T09:24:22.601Z,4.9
2016-10-13T09:25:22.669Z,4.21
2016-10-13T09:26:22.597Z,4.16
2016-10-13T09:27:22.593Z,3.99
2016-10-13T09:28:22.573Z,3.82
2016-10-13T09:29:22.574Z,3.6
2016-10-13T09:30:22.535Z,4.07
2016-10-13T09:31:22.521Z,4.39
2016-10-13T09:32:22.515Z,4.13
2016-10-13T09:33:22.512Z,4.16
2016-10-13T09:34:22.495Z,4.51
2016-10-13T09:35:22.500Z,4.56
2016-10-13T09:36:22.461Z,5.24
2016-10-13T09:37:22.464Z,5.32
2016-10-13T09:38:22.463Z,5.52
2016-10-13T09:39:22.424Z,5.7
2016-10-13T09:40:22.412Z,5.73
2016-10-13T09:41:22.434Z,5.4
2016-10-13T09:42:22.391Z,5.37
2016-10-13T09:43:22.405Z,5.11
2016-10-13T09:44:22.372Z,5.26
2016-10-13T09:45:22.360Z,5.08
2016-10-13T09:46:22.355Z,5.33
2016-10-13T09:47:22.335Z,5.48
2016-10-13T09:48:22.361Z,5.33
2016-10-13T09:49:22.334Z,5.51
2016-10-13T09:50:22.288Z,5.44
2016-10-13T09:51:22.306Z,5.42
2016-10-13T09:52:22.263Z,5.99
2016-10-13T09:53:22.255Z,5.65
2016-10-13T09:54:22.279Z,5.37
2016-10-13T09:55:22.247Z,5.8
2016-10-13T09:56:22.250Z,6.35
2016-10-13T09:57:22.212Z,5.63
2016-10-13T09:58:22.207Z,5.37
2016-10-13T09:59:22.217Z,5.37
2016-10-13T10:00:22.201Z,5.48
2016-10-13T10:01:22.188Z,5.69
2016-10-13T10:02:22.185Z,5.83
2016-10-13T10:03:22.159Z,6.2
2016-10-13T10:04:22.147Z,6.03
2016-10-13T10:05:22.130Z,6.42
2016-10-13T10:06:22.115Z,6.73
2016-10-13T10:07:22.130Z,6.65
2016-10-13T10:08:22.122Z,6.58
2016-10-13T10:09:22.108Z,6.43
2016-10-13T10:10:22.106Z,5.75
2016-10-13T10:11:22.088Z,5.83
2016-10-13T10:12:22.068Z,5.62
2016-10-13T10:13:22.045Z,6.28
2016-10-13T10:14:22.042Z,6.99
2016-10-13T10:15:22.037Z,6.99
2016-10-13T10:16:22.033Z,6.93
2016-10-13T10:17:22.030Z,6.86
2016-10-13T10:18:21.987Z,6.54
2016-10-13T10:19:21.987Z,6.45
2016-10-13T10:20:21.984Z,6.28
2016-10-13T10:21:21.960Z,5.93
2016-10-13T10:22:21.962Z,6.27
2016-10-13T10:23:21.955Z,6.58
2016-10-13T10:24:21.956Z,6.45
2016-10-13T10:25:21.925Z,6.3
2016-10-13T10:26:21.918Z,6.05
2016-10-13T10:27:21.911Z,6.11
2016-10-13T10:28:21.914Z,6.05
2016-10-13T10:29:21.890Z,5.84
2016-10-13T10:30:21.893Z,5.59
2016-10-13T10:31:21.843Z,5.56
2016-10-13T10:32:21.857Z,4.91
2016-10-13T10:33:21.856Z,4.79
2016-10-13T10:34:21.848Z,4.75
2016-10-13T10:35:21.821Z,5.35
2016-10-13T10:36:21.832Z,5.4
2016-10-13T10:37:21.813Z,5.78
2016-10-13T10:38:21.771Z,5.85
2016-10-13T10:39:21.763Z,5.95
2016-10-13T10:40:21.770Z,5.48
2016-10-13T10:41:21.765Z,5.87
2016-10-13T10:42:22.089Z,6.38
2016-10-13T10:43:21.731Z,6.75
2016-10-13T10:44:21.728Z,6.65
2016-10-13T10:45:21.722Z,6.27
2016-10-13T10:46:21.685Z,6.14
2016-10-13T10:47:21.666Z,6.2
2016-10-13T10:48:21.689Z,6.24
2016-10-13T10:49:21.964Z,6.3
2016-10-13T10:50:21.666Z,5.22
2016-10-13T10:51:21.647Z,4.5
2016-10-13T10:52:21.639Z,4.38
2016-10-13T10:53:21.605Z,4.64
2016-10-13T10:54:21.618Z,4.69
2016-10-13T10:55:21.609Z,4.47
2016-10-13T10:56:21.905Z,4.53
2016-10-13T10:57:21.570Z,4.43
2016-10-13T10:58:21.552Z,4.14
2016-10-13T10:59:21.551Z,4.75
2016-10-13T11:00:21.540Z,4.67
2016-10-13T11:01:21.517Z,4.67
2016-10-13T11:02:21.493Z,4.88
2016-10-13T11:03:21.478Z,5.12
2016-10-13T11:04:21.477Z,5.45
2016-10-13T11:05:21.482Z,5.9
2016-10-13T11:06:21.441Z,5.73
2016-10-13T11:07:21.450Z,5.23
2016-10-13T11:08:21.443Z,4.46
2016-10-13T11:09:21.425Z,3.88
2016-10-13T11:10:21.398Z,3.95
2016-10-13T11:11:21.417Z,4.24
2016-10-13T11:12:21.368Z,4.51
2016-10-13T11:13:21.386Z,4.26
2016-10-13T11:14:21.359Z,4.28
2016-10-13T11:15:21.334Z,4.34
2016-10-13T11:16:21.356Z,4.35
2016-10-13T11:17:21.339Z,3.52
2016-10-13T11:18:21.323Z,3.3
2016-10-13T11:19:21.308Z,3.88
2016-10-13T11:20:21.293Z,3.84
2016-10-13T11:21:21.280Z,4.21
2016-10-13T11:22:21.264Z,4.11
2016-10-13T11:23:21.263Z,3.93
2016-10-13T11:24:21.232Z,3.5
2016-10-13T11:25:21.223Z,3.59
2016-10-13T11:26:21.197Z,2
2016-10-13T11:27:21.209Z,1.67
2016-10-13T11:28:21.196Z,1.63
2016-10-13T11:29:21.170Z,1.26
2016-10-13T11:30:21.181Z,1.31
2016-10-13T11:31:21.156Z,1.79
2016-10-13T11:32:21.124Z,2.27
2016-10-13T11:33:21.104Z,2.3
2016-10-13T11:34:21.127Z,1.64
2016-10-13T11:35:21.105Z,2.02
2016-10-13T11:36:21.084Z,1.9
2016-10-13T11:37:21.099Z,1.75
2016-10-13T11:38:21.035Z,1.93
2016-10-13T11:39:21.334Z,2.44
2016-10-13T11:40:21.031Z,1.61
2016-10-13T11:41:21.011Z,1.02
2016-10-13T11:42:20.997Z,1.08
2016-10-13T11:43:20.970Z,1.08
2016-10-13T11:44:20.963Z,0.99
2016-10-13T11:45:20.968Z,1.11
2016-10-13T11:46:20.938Z,1.02
2016-10-13T11:47:20.920Z,0.98
2016-10-13T11:48:20.918Z,0.93
2016-10-13T11:49:20.879Z,0.88
2016-10-13T11:50:20.881Z,0.89
2016-10-13T11:51:20.867Z,0.77
2016-10-13T11:52:20.872Z,0.49
2016-10-13T11:53:20.845Z,0.33
2016-10-13T11:54:20.805Z,0.25
2016-10-13T11:55:20.808Z,0.3
2016-10-13T11:56:20.792Z,0.26
2016-10-13T11:57:21.068Z,0.37
2016-10-13T11:58:20.748Z,0.35
2016-10-13T11:59:21.071Z,0.38
2016-10-13T12:00:20.720Z,0.44
2016-10-13T12:01:20.719Z,0.45
2016-10-13T12:02:20.706Z,0.49
2016-10-13T12:03:20.695Z,0.57
2016-10-13T12:04:20.682Z,0.53
2016-10-13T12:05:20.859Z,0.63
2016-10-13T12:06:20.660Z,0.7
2016-10-13T12:07:20.655Z,0.7
2016-10-13T12:08:20.607Z,0.72
2016-10-13T12:09:20.609Z,0.4
2016-10-13T12:10:20.600Z,0.16
2016-10-13T12:11:20.576Z,-0.05
2016-10-13T12:12:20.561Z,-0.13
2016-10-13T12:13:20.540Z,0.02
2016-10-13T12:14:20.519Z,-0.02
2016-10-13T12:15:20.516Z,-0.05
2016-10-13T12:16:20.510Z,0.08
2016-10-13T12:17:20.476Z,-0.03
2016-10-13T12:18:20.498Z,-0.06
2016-10-13T12:19:20.466Z,-0.03
2016-10-13T12:20:20.446Z,-0.16
2016-10-13T12:21:20.430Z,-0.12
2016-10-13T12:22:20.407Z,-0.12
2016-10-13T12:23:20.412Z,-0.01
2016-10-13T12:24:20.408Z,0.05
2016-10-13T12:25:20.378Z,0.01
2016-10-13T12:26:20.373Z,-0.13
2016-10-13T12:27:20.350Z,-0.24
2016-10-13T12:28:20.337Z,-0.49
2016-10-13T12:29:20.321Z,-0.67
2016-10-13T12:30:20.307Z,-0.8
2016-10-13T12:31:20.299Z,-0.95
2016-10-13T12:32:20.346Z,-1.17
2016-10-13T12:33:20.277Z,-1
2016-10-13T12:34:20.268Z,-0.93
2016-10-13T12:35:20.244Z,-0.78
2016-10-13T12:36:20.226Z,-0.53
2016-10-13T12:37:20.202Z,-0.37
2016-10-13T12:38:20.183Z,-0.21
2016-10-13T12:39:20.156Z,-0.06
2016-10-13T12:40:20.164Z,-0.09
2016-10-13T12:41:20.151Z,-0.2
2016-10-13T12:42:20.138Z,-0.2
2016-10-13T12:43:20.110Z,-0.3
2016-10-13T12:44:20.100Z,-0.23
2016-10-13T12:45:20.080Z,0.01
2016-10-13T12:46:20.085Z,-0.02
2016-10-13T12:47:20.062Z,0.12
2016-10-13T12:48:20.052Z,0.2
2016-10-13T12:49:20.023Z,0.23
2016-10-13T12:50:20.030Z,0.4
2016-10-13T12:51:19.991Z,0.4
2016-10-13T12:52:19.980Z,0.35
2016-10-13T12:53:19.963Z,0.34
2016-10-13T12:54:19.955Z,0.33
2016-10-13T12:55:19.953Z,0.2
2016-10-13T12:56:19.934Z,0.07
2016-10-13T12:57:19.905Z,0.12
2016-10-13T12:58:19.902Z,-0.19
2016-10-13T12:59:19.893Z,-0.62
2016-10-13T13:00:19.873Z,-0.81
2016-10-13T13:01:19.867Z,-0.92
2016-10-13T13:02:19.843Z,-0.73
2016-10-13T13:03:19.821Z,-0.74
2016-10-13T13:04:19.813Z,-0.76
2016-10-13T13:05:19.781Z,-0.73
2016-10-13T13:06:19.783Z,-0.58
2016-10-13T13:07:19.781Z,-0.39
2016-10-13T13:08:19.747Z,-0.38
2016-10-13T13:09:19.717Z,-0.34
2016-10-13T13:10:19.711Z,-0.14
2016-10-13T13:11:19.721Z,-0.17
2016-10-13T13:12:19.698Z,-0.3
2016-10-13T13:13:19.682Z,-0.21
2016-10-13T13:14:19.661Z,-0.37
2016-10-13T13:15:19.645Z,-0.35
2016-10-13T13:16:19.633Z,-0.34
2016-10-13T13:17:19.614Z,-0.17
2016-10-13T13:18:19.590Z,-0.14
2016-10-13T13:19:19.563Z,-0.08
2016-10-13T13:20:19.580Z,-0.06
2016-10-13T13:21:19.861Z,-0.3
2016-10-13T13:22:19.524Z,-0.83
2016-10-13T13:23:19.509Z,-1.2
2016-10-13T13:24:19.521Z,-1.33
2016-10-13T13:25:19.481Z,-1.07
2016-10-13T13:26:19.475Z,-0.97
2016-10-13T13:27:19.459Z,-0.9
2016-10-13T13:28:19.443Z,-0.74
2016-10-13T13:29:19.428Z,-0.68
2016-10-13T13:30:19.413Z,-0.58
2016-10-13T13:31:19.375Z,-0.55
2016-10-13T13:32:19.385Z,-0.49
2016-10-13T13:33:19.365Z,-0.55
2016-10-13T13:34:19.356Z,-0.47
2016-10-13T13:35:19.335Z,-0.42
2016-10-13T13:36:19.309Z,-0.44
2016-10-13T13:37:19.302Z,-0.42
2016-10-13T13:38:19.296Z,-0.49
2016-10-13T13:39:19.271Z,-0.47
2016-10-13T13:40:19.255Z,-0.41
2016-10-13T13:41:19.235Z,-0.37
2016-10-13T13:42:19.239Z,-0.31
2016-10-13T13:43:19.217Z,-0.31
2016-10-13T13:44:19.190Z,-0.26
2016-10-13T13:45:19.184Z,-0.31
2016-10-13T13:46:19.151Z,-0.49
2016-10-13T13:47:19.150Z,-0.52
2016-10-13T13:48:19.147Z,-0.53
2016-10-13T13:49:19.125Z,-0.55
2016-10-13T13:50:19.100Z,-0.49
2016-10-13T13:51:19.087Z,-0.63
2016-10-13T13:52:19.252Z,-0.89
2016-10-13T13:53:19.051Z,-0.92
2016-10-13T13:54:19.041Z,-0.92
2016-10-13T13:55:19.031Z,-0.77
2016-10-13T13:56:19.025Z,-0.71
2016-10-13T13:57:19.159Z,-0.81
2016-10-13T13:58:18.980Z,-0.76
2016-10-13T13:59:18.978Z,-0.78
2016-10-13T14:00:18.940Z,-0.76
2016-10-13T14:01:18.940Z,-0.77
2016-10-13T14:02:18.911Z,-0.7
2016-10-13T14:03:18.908Z,-0.67
2016-10-13T14:04:18.865Z,-0.74
2016-10-13T14:05:18.854Z,-0.7
2016-10-13T14:06:18.845Z,-0.6
2016-10-13T14:07:18.836Z,-0.6
2016-10-13T14:08:18.811Z,-0.9
2016-10-13T14:09:18.820Z,-0.81
2016-10-13T14:10:18.799Z,-0.76
2016-10-13T14:11:18.769Z,-0.74
2016-10-13T14:12:18.764Z,-0.73
2016-10-13T14:13:18.744Z,-0.56
2016-10-13T14:14:18.724Z,-0.52
2016-10-13T14:15:18.692Z,-0.52
2016-10-13T14:16:18.696Z,-0.52
2016-10-13T14:17:18.674Z,-0.47
2016-10-13T14:18:18.988Z,-0.5
2016-10-13T14:19:18.647Z,-0.5
2016-10-13T14:20:18.624Z,-0.52
2016-10-13T14:21:18.599Z,-0.53
2016-10-13T14:22:18.604Z,-0.42
2016-10-13T14:23:18.576Z,-0.35
2016-10-13T14:24:18.584Z,-0.35
2016-10-13T14:25:18.560Z,-0.44
2016-10-13T14:26:18.535Z,-0.5
2016-10-13T14:27:18.530Z,-0.56
2016-10-13T14:28:18.502Z,-0.67
2016-10-13T14:29:18.488Z,-1.13
2016-10-13T14:30:18.480Z,-1.39
2016-10-13T14:31:18.444Z,-1.32
2016-10-13T14:32:18.466Z,-1.28
2016-10-13T14:33:18.431Z,-1.02
2016-10-13T14:34:18.423Z,-1
2016-10-13T14:35:18.386Z,-0.92
2016-10-13T14:36:18.399Z,-0.76
2016-10-13T14:37:18.370Z,-0.67
2016-10-13T14:38:18.431Z,-0.55
2016-10-13T14:39:18.338Z,-0.56
2016-10-13T14:40:18.330Z,-0.39
2016-10-13T14:41:18.305Z,-0.37
2016-10-13T14:42:18.298Z,-0.35
2016-10-13T14:43:18.281Z,-0.34
2016-10-13T14:44:18.240Z,-0.32
2016-10-13T14:45:18.226Z,-0.31
2016-10-13T14:46:18.254Z,-0.34
2016-10-13T14:47:18.234Z,-0.23
2016-10-13T14:48:18.191Z,-0.23
2016-10-13T14:49:18.173Z,-0.31
2016-10-13T14:50:18.183Z,-0.39
2016-10-13T14:51:18.150Z,-0.35
2016-10-13T14:52:18.156Z,-0.37
2016-10-13T14:53:18.129Z,-0.49
2016-10-13T14:54:18.098Z,-0.39
2016-10-13T14:55:18.111Z,-0.49
2016-10-13T14:56:18.066Z,-0.56
2016-10-13T14:57:18.060Z,-0.56
2016-10-13T14:58:18.052Z,-0.58
2016-10-13T14:59:18.014Z,-0.55
2016-10-13T15:00:18.019Z,-0.52
2016-10-13T15:01:17.984Z,-0.55
2016-10-13T15:02:18.004Z,-0.49
2016-10-13T15:03:17.972Z,-0.45
2016-10-13T15:04:17.958Z,-0.39
2016-10-13T15:05:17.942Z,-0.31
2016-10-13T15:06:17.935Z,-0.31
2016-10-13T15:07:17.893Z,-0.16
2016-10-13T15:08:17.910Z,-0.16
2016-10-13T15:09:17.895Z,-0.14
2016-10-13T15:10:17.865Z,-0.08
2016-10-13T15:11:17.852Z,0.01
2016-10-13T15:12:17.830Z,0.05
2016-10-13T15:13:17.835Z,0.04
2016-10-13T15:14:17.800Z,-0.01
2016-10-13T15:15:17.791Z,0.01
2016-10-13T15:16:17.757Z,0.07
2016-10-13T15:17:17.756Z,0.07
2016-10-13T15:18:17.765Z,0.04
2016-10-13T15:19:17.717Z,0.02
2016-10-13T15:20:17.707Z,-0.05
2016-10-13T15:21:17.695Z,-0.13
2016-10-13T15:22:17.681Z,-0.21
2016-10-13T15:23:17.648Z,-0.19
2016-10-13T15:24:17.634Z,-0.14
2016-10-13T15:25:17.647Z,-0.14
2016-10-13T15:26:17.640Z,-0.2
2016-10-13T15:27:17.597Z,-0.16
2016-10-13T15:28:17.594Z,-0.12
2016-10-13T15:29:17.559Z,-0.09
2016-10-13T15:30:17.545Z,-0.09
2016-10-13T15:31:17.553Z,0.02
2016-10-13T15:32:17.550Z,-0.16
2016-10-13T15:33:17.506Z,0.01
2016-10-13T15:34:17.562Z,-0.14
2016-10-13T15:35:17.860Z,-0.14
2016-10-13T15:36:17.481Z,-0.16
2016-10-13T15:37:17.451Z,-0.17
2016-10-13T15:38:17.438Z,-0.14
2016-10-13T15:39:17.428Z,-0.16
2016-10-13T15:40:17.393Z,-0.2
2016-10-13T15:41:17.375Z,-0.21
2016-10-13T15:42:17.394Z,-0.12
2016-10-13T15:43:17.368Z,-0.13
2016-10-13T15:44:17.393Z,-0.17
2016-10-13T15:45:17.343Z,-0.09
2016-10-13T15:46:17.315Z,-0.09
2016-10-13T15:47:17.292Z,-0.09
2016-10-13T15:48:17.302Z,-0.03
2016-10-13T15:49:17.284Z,-0.06
2016-10-13T15:50:17.269Z,-0.08
2016-10-13T15:51:17.239Z,-0.2
2016-10-13T15:52:17.222Z,-0.17
2016-10-13T15:53:17.208Z,-0.08
2016-10-13T15:54:17.201Z,-0.02
2016-10-13T15:55:17.184Z,-0.09
2016-10-13T15:56:17.173Z,-0.08
2016-10-13T15:57:17.149Z,-0.17
2016-10-13T15:58:17.140Z,-0.12
2016-10-13T15:59:17.125Z,-0.12
2016-10-13T16:00:17.131Z,-0.05
2016-10-13T16:01:17.087Z,-0.01
2016-10-13T16:02:17.073Z,-0.02
2016-10-13T16:03:17.059Z,0.12
2016-10-13T16:04:17.247Z,-0.01
2016-10-13T16:05:17.035Z,0.13
2016-10-13T16:06:17.005Z,0.15
2016-10-13T16:07:17.006Z,0.19
2016-10-13T16:08:16.982Z,0.22
2016-10-13T16:09:16.965Z,0.13
2016-10-13T16:10:16.959Z,0.16
2016-10-13T16:11:16.935Z,0.13
2016-10-13T16:12:16.909Z,0.16
2016-10-13T16:13:16.915Z,0.23
2016-10-13T16:14:16.873Z,0.2
2016-10-13T16:15:16.892Z,0.22
2016-10-13T16:16:16.886Z,0.2
2016-10-13T16:17:16.847Z,0.15
2016-10-13T16:18:16.824Z,0.13
2016-10-13T16:19:16.834Z,0.02
2016-10-13T16:20:16.804Z,0.08
2016-10-13T16:21:16.782Z,0.1
2016-10-13T16:22:16.778Z,0.17
2016-10-13T16:23:16.764Z,0.3
2016-10-13T16:24:16.721Z,0.33
2016-10-13T16:25:16.740Z,0.3
2016-10-13T16:26:16.710Z,0.26
2016-10-13T16:27:16.709Z,0.23
2016-10-13T16:28:16.672Z,0.28
2016-10-13T16:29:16.659Z,0.33
2016-10-13T16:30:16.709Z,0.26
2016-10-13T16:31:16.632Z,0.26
2016-10-13T16:32:16.624Z,0.26
2016-10-13T16:33:16.607Z,0.33
2016-10-13T16:34:16.802Z,0.49
2016-10-13T16:35:16.755Z,0.52
2016-10-13T16:36:16.568Z,0.49
2016-10-13T16:37:16.525Z,0.51
2016-10-13T16:38:16.510Z,0.64
2016-10-13T16:39:16.515Z,0.59
2016-10-13T16:40:16.518Z,0.48
2016-10-13T16:41:16.491Z,0.52
2016-10-13T16:42:16.475Z,0.35
2016-10-13T16:43:16.447Z,0.31
2016-10-13T16:44:16.429Z,0.4
2016-10-13T16:45:16.423Z,0.44
2016-10-13T16:46:16.386Z,0.45
2016-10-13T16:47:16.393Z,0.45
2016-10-13T16:48:16.383Z,0.34
2016-10-13T16:49:16.346Z,0.41
2016-10-13T16:50:16.348Z,0.28
2016-10-13T16:51:16.309Z,0.28
2016-10-13T16:52:16.303Z,0.25
2016-10-13T16:53:16.293Z,0.34
2016-10-13T16:54:16.285Z,0.38
2016-10-13T16:55:16.255Z,0.34
2016-10-13T16:56:16.228Z,0.35
2016-10-13T16:57:16.234Z,0.53
2016-10-13T16:58:16.220Z,0.63
2016-10-13T16:59:16.204Z,0.67
2016-10-13T17:00:16.194Z,0.68
2016-10-13T17:01:16.230Z,0.74
2016-10-13T17:02:16.359Z,0.52
2016-10-13T17:03:16.138Z,0.52
2016-10-13T17:04:16.311Z,0.52
2016-10-13T17:05:16.338Z,0.49
2016-10-13T17:06:16.093Z,0.57
2016-10-13T17:07:16.059Z,0.48
2016-10-13T17:08:16.345Z,0.4
2016-10-13T17:09:16.029Z,0.38
2016-10-13T17:10:16.032Z,0.35
2016-10-13T17:11:16.017Z,0.37
2016-10-13T17:12:15.981Z,0.48
2016-10-13T17:13:15.979Z,0.48
2016-10-13T17:14:15.977Z,0.31
2016-10-13T17:15:15.936Z,0.49
2016-10-13T17:16:15.931Z,0.57
2016-10-13T17:17:15.939Z,0.62
2016-10-13T17:18:15.923Z,0.52
2016-10-13T17:19:15.872Z,0.59
2016-10-13T17:20:15.876Z,0.49
2016-10-13T17:21:15.864Z,0.68
2016-10-13T17:22:15.858Z,0.63
2016-10-13T17:23:16.115Z,0.63
2016-10-13T17:24:15.803Z,0.57
2016-10-13T17:25:15.785Z,0.6
2016-10-13T17:26:15.768Z,0.57
2016-10-13T17:27:15.764Z,0.44
2016-10-13T17:28:15.743Z,0.49
2016-10-13T17:29:15.729Z,0.48
2016-10-13T17:30:15.721Z,0.67
2016-10-13T17:31:15.720Z,0.78
2016-10-13T17:32:15.898Z,0.84
2016-10-13T17:33:15.669Z,0.92
2016-10-13T17:34:15.863Z,0.9
2016-10-13T17:35:15.641Z,0.92
2016-10-13T17:36:15.652Z,0.9
2016-10-13T17:37:15.621Z,0.92
2016-10-13T17:38:15.605Z,0.9
2016-10-13T17:39:15.586Z,0.9
2016-10-13T17:40:15.572Z,0.98
2016-10-13T17:41:15.576Z,0.9
2016-10-13T17:42:15.570Z,0.9
2016-10-13T17:43:15.513Z,0.81
2016-10-13T17:44:15.508Z,0.7
2016-10-13T17:45:15.491Z,0.67
2016-10-13T17:46:15.484Z,0.71
2016-10-13T17:47:15.482Z,0.63
2016-10-13T17:48:15.460Z,0.53
2016-10-13T17:49:15.430Z,0.56
2016-10-13T17:50:15.431Z,0.57
2016-10-13T17:51:15.408Z,0.62
2016-10-13T17:52:15.399Z,0.63
2016-10-13T17:53:15.377Z,0.63
2016-10-13T17:54:15.385Z,0.64
2016-10-13T17:55:15.353Z,0.71
2016-10-13T17:56:15.331Z,0.62
2016-10-13T17:57:15.319Z,0.68
2016-10-13T17:58:15.311Z,0.7
2016-10-13T17:59:15.288Z,0.71
2016-10-13T18:00:15.277Z,0.71
2016-10-13T18:01:15.252Z,0.6
2016-10-13T18:02:15.265Z,0.59
2016-10-13T18:03:15.248Z,0.49
2016-10-13T18:04:15.416Z,0.52
2016-10-13T18:05:15.198Z,0.49
2016-10-13T18:06:15.186Z,0.43
2016-10-13T18:07:15.167Z,0.51
2016-10-13T18:08:15.157Z,0.48
2016-10-13T18:09:15.149Z,0.43
2016-10-13T18:10:15.128Z,0.59
2016-10-13T18:11:15.091Z,0.48
2016-10-13T18:12:15.096Z,0.48
2016-10-13T18:13:15.095Z,0.52
2016-10-13T18:14:15.055Z,0.56
2016-10-13T18:15:15.059Z,0.59
2016-10-13T18:16:15.038Z,0.62
2016-10-13T18:17:15.010Z,0.67
2016-10-13T18:18:15.001Z,0.7
2016-10-13T18:19:14.985Z,0.67
2016-10-13T18:20:14.985Z,0.77
2016-10-13T18:21:14.971Z,0.74
2016-10-13T18:22:14.930Z,0.6
2016-10-13T18:23:14.939Z,0.77
2016-10-13T18:24:15.235Z,0.67
2016-10-13T18:25:14.904Z,0.77
2016-10-13T18:26:14.889Z,0.7
2016-10-13T18:27:14.868Z,0.74
2016-10-13T18:28:14.844Z,0.71
2016-10-13T18:29:14.859Z,0.62
2016-10-13T18:30:14.807Z,0.57
2016-10-13T18:31:14.793Z,0.56
2016-10-13T18:32:14.793Z,0.48
2016-10-13T18:33:14.798Z,0.51
2016-10-13T18:34:15.054Z,0.49
2016-10-13T18:35:14.733Z,0.49
2016-10-13T18:36:14.737Z,0.48
2016-10-13T18:37:14.726Z,0.51
2016-10-13T18:38:14.724Z,0.49
2016-10-13T18:39:14.710Z,0.49
2016-10-13T18:40:14.674Z,0.43
2016-10-13T18:41:14.657Z,0.45
2016-10-13T18:42:14.638Z,0.51
2016-10-13T18:43:14.623Z,0.51
2016-10-13T18:44:14.601Z,0.52
2016-10-13T18:45:14.606Z,0.63
2016-10-13T18:46:14.595Z,0.57
2016-10-13T18:47:14.575Z,0.62
2016-10-13T18:48:14.569Z,0.67
2016-10-13T18:49:14.559Z,0.68
2016-10-13T18:50:14.538Z,0.7
2016-10-13T18:51:14.492Z,0.64
2016-10-13T18:52:14.501Z,0.8
2016-10-13T18:53:14.500Z,0.78
2016-10-13T18:54:14.458Z,0.84
2016-10-13T18:55:14.443Z,0.77
2016-10-13T18:56:14.425Z,0.77
2016-10-13T18:57:14.426Z,0.78
2016-10-13T18:58:14.393Z,0.8
2016-10-13T18:59:14.401Z,0.8
2016-10-13T19:00:14.384Z,0.77
2016-10-13T19:01:14.358Z,0.72
2016-10-13T19:02:14.332Z,0.75
2016-10-13T19:03:14.331Z,0.77
2016-10-13T19:04:14.332Z,0.78
2016-10-13T19:05:14.293Z,0.88
2016-10-13T19:06:14.291Z,0.81
2016-10-13T19:07:14.265Z,0.82
2016-10-13T19:08:14.256Z,0.75
2016-10-13T19:09:14.283Z,0.8
2016-10-13T19:10:14.236Z,0.77
2016-10-13T19:11:14.226Z,0.72
2016-10-13T19:12:14.228Z,0.75
2016-10-13T19:13:14.219Z,0.71
2016-10-13T19:14:14.193Z,0.67
2016-10-13T19:15:14.195Z,0.75
2016-10-13T19:16:14.162Z,0.67
2016-10-13T19:17:14.143Z,0.64
2016-10-13T19:18:14.146Z,0.74
2016-10-13T19:19:14.129Z,0.81
2016-10-13T19:20:14.110Z,0.78
2016-10-13T19:21:14.045Z,0.77
2016-10-13T19:22:14.040Z,0.77
2016-10-13T19:23:14.076Z,0.74
2016-10-13T19:24:14.051Z,0.8
2016-10-13T19:25:14.023Z,0.81
2016-10-13T19:26:13.999Z,0.82
2016-10-13T19:27:13.966Z,0.81
2016-10-13T19:28:14.017Z,0.88
2016-10-13T19:29:13.998Z,0.8
2016-10-13T19:30:13.919Z,0.8
2016-10-13T19:31:13.924Z,0.78
2016-10-13T19:32:13.888Z,0.81
2016-10-13T19:33:13.897Z,0.81
2016-10-13T19:34:14.220Z,0.74
2016-10-13T19:35:13.899Z,0.75
2016-10-13T19:36:13.857Z,0.81
2016-10-13T19:37:13.831Z,0.8
2016-10-13T19:38:13.824Z,0.86
2016-10-13T19:39:13.821Z,0.93
2016-10-13T19:40:13.790Z,0.9
2016-10-13T19:41:13.766Z,0.89
2016-10-13T19:42:13.754Z,0.89
2016-10-13T19:43:13.730Z,0.95
2016-10-13T19:44:13.722Z,0.96
2016-10-13T19:45:13.703Z,0.92
2016-10-13T19:46:13.711Z,0.99
2016-10-13T19:47:13.663Z,1
2016-10-13T19:48:13.678Z,1.04
2016-10-13T19:49:13.648Z,1.06
2016-10-13T19:50:13.642Z,1.06
2016-10-13T19:51:13.627Z,1.06
2016-10-13T19:52:13.617Z,1.08
2016-10-13T19:53:13.567Z,1.11
2016-10-13T19:54:13.571Z,1.11
2016-10-13T19:55:13.853Z,1.1
2016-10-13T19:56:13.541Z,1
2016-10-13T19:57:13.559Z,0.99
2016-10-13T19:58:13.527Z,1.06
2016-10-13T19:59:13.493Z,1.06
2016-10-13T20:00:13.472Z,1.06
2016-10-13T20:01:13.484Z,1.06
2016-10-13T20:02:13.465Z,1.06
2016-10-13T20:03:13.441Z,0.99
2016-10-13T20:04:13.422Z,1.04
2016-10-13T20:05:13.396Z,1.14
2016-10-13T20:06:13.403Z,1.16
2016-10-13T20:07:13.370Z,1.06
2016-10-13T20:08:13.350Z,1.25
2016-10-13T20:09:13.353Z,1.17
2016-10-13T20:10:13.350Z,1.17
2016-10-13T20:11:13.641Z,1.16
2016-10-13T20:12:13.325Z,1.16
2016-10-13T20:13:13.280Z,1.1
2016-10-13T20:14:13.289Z,1.18
2016-10-13T20:15:13.257Z,1.18
2016-10-13T20:16:13.232Z,1.07
2016-10-13T20:17:13.245Z,1.13
2016-10-13T20:18:13.214Z,1.13
2016-10-13T20:19:13.212Z,1.16
2016-10-13T20:20:13.192Z,1.07
2016-10-13T20:21:13.177Z,1.11
2016-10-13T20:22:13.159Z,1.13
2016-10-13T20:23:13.127Z,1.11
2016-10-13T20:24:13.149Z,1.24
2016-10-13T20:25:13.109Z,1.13
2016-10-13T20:26:13.106Z,1.11
2016-10-13T20:27:13.091Z,1.21
2016-10-13T20:28:13.057Z,1.16
2016-10-13T20:29:13.059Z,1.14
2016-10-13T20:30:13.058Z,1.17
2016-10-13T20:31:13.031Z,1.08
2016-10-13T20:32:13.008Z,1.2
2016-10-13T20:33:13.021Z,1.11
2016-10-13T20:34:12.986Z,1.08
2016-10-13T20:35:12.970Z,1.21